Time,TemperatureF,DewpointF,PressureIn,WindDirection,WindDirectionDegrees,WindSpeedMPH,WindSpeedGustMPH,Humidity,HourlyPrecipIn,Conditions,Clouds,dailyrainin,SoftwareType,DateUTC
2013-09-16 00:14:00,59.3,58.0,30.18,South,178,7.0,-999.0,96,-99.99,,,0.00,weatherlink.com 1.10,2013-09-16 04:14:00,
2013-09-16 00:29:00,59.2,58.0,30.18,SW,231,5.0,-999.0,96,-99.99,,,0.00,weatherlink.com 1.10,2013-09-16 04:29:00,
2013-09-16 00:44:00,59.1,58.0,30.18,WSW,244,7.0,-999.0,96,-99.99,,,0.00,weatherlink.com 1.10,2013-09-16 04:44:00,
2013-09-16 00:59:00,59.0,58.0,30.18,WSW,258,5.0,-999.0,96,-99.99,,,0.00,weatherlink.com 1.10,2013-09-16 04:59:00,
2013-09-16 01:14:00,58.7,58.0,30.18,SW,215,7.0,-999.0,97,-99.99,,,0.00,weatherlink.com 1.10,2013-09-16 05:14:00,
2013-09-16 01:29:00,58.7,58.0,30.18,WSW,248,9.0,-999.0,97,-99.99,,,0.00,weatherlink.com 1.10,2013-09-16 05:29:00,
2013-09-16 01:44:00,58.5,58.0,30.18,SW,234,4.0,-999.0,97,-99.99,,,0.00,weatherlink.com 1.10,2013-09-16 05:44:00,
2013-09-16 01:59:00,58.4,58.0,30.18,SW,231,9.0,-999.0,97,-99.99,,,0.00,weatherlink.com 1.10,2013-09-16 05:59:00,
2013-09-16 02:14:00,58.3,58.0,30.18,WSW,255,7.0,-999.0,97,-99.99,,,0.00,weatherlink.com 1.10,2013-09-16 06:14:00,
2013-09-16 02:29:00,59.1,57.0,30.18,WNW,290,7.0,-999.0,93,-99.99,,,0.00,weatherlink.com 1.10,2013-09-16 06:29:00,
2013-09-16 02:44:00,59.4,55.0,30.17,West,281,10.0,-999.0,86,-99.99,,,0.00,weatherlink.com 1.10,2013-09-16 06:44:00,
2013-09-16 02:59:00,60.0,55.0,30.17,NW,308,9.0,-999.0,82,-99.99,,,0.00,weatherlink.com 1.10,2013-09-16 06:59:00,
2013-09-16 03:14:00,60.1,55.0,30.17,WSW,252,10.0,-999.0,82,-99.99,,,0.00,weatherlink.com 1.10,2013-09-16 07:14:00,
2013-09-16 03:29:00,60.0,54.0,30.16,WSW,255,7.0,-999.0,81,-99.99,,,0.00,weatherlink.com 1.10,2013-09-16 07:29:00,
2013-09-16 03:44:00,60.1,54.0,30.16,West,269,9.0,-999.0,80,-99.99,,,0.00,weatherlink.com 1.10,2013-09-16 07:44:00,
2013-09-16 03:59:00,60.6,54.0,30.16,WSW,242,8.0,-999.0,78,-99.99,,,0.00,weatherlink.com 1.10,2013-09-16 07:59:00,
2013-09-16 04:14:00,60.5,54.0,30.16,WSW,258,10.0,-999.0,78,-99.99,,,0.00,weatherlink.com 1.10,2013-09-16 08:14:00,
2013-09-16 04:29:00,60.2,54.0,30.16,West,277,10.0,-999.0,79,-99.99,,,0.00,weatherlink.com 1.10,2013-09-16 08:29:00,
2013-09-16 04:44:00,60.2,54.0,30.16,West,263,9.0,-999.0,80,-99.99,,,0.00,weatherlink.com 1.10,2013-09-16 08:44:00,
2013-09-16 05:00:00,60.0,54.0,30.16,West,261,10.0,-999.0,80,-99.99,,,0.00,weatherlink.com 1.10,2013-09-16 09:00:00,
2013-09-16 05:14:00,60.3,54.0,30.16,West,275,7.0,-999.0,80,-99.99,,,0.00,weatherlink.com 1.10,2013-09-16 09:14:00,
2013-09-16 05:29:00,60.6,54.0,30.16,West,273,6.0,-999.0,80,-99.99,,,0.00,weatherlink.com 1.10,2013-09-16 09:29:00,
2013-09-16 05:44:00,60.0,54.0,30.16,West,273,5.0,-999.0,81,-99.99,,,0.00,weatherlink.com 1.10,2013-09-16 09:44:00,
2013-09-16 05:59:00,59.8,55.0,30.15,SW,223,5.0,-999.0,83,-99.99,,,0.00,weatherlink.com 1.10,2013-09-16 09:59:00,
2013-09-16 06:14:00,59.9,55.0,30.15,West,275,4.0,-999.0,83,-99.99,,,0.00,weatherlink.com 1.10,2013-09-16 10:14:00,
2013-09-16 06:29:00,59.4,55.0,30.16,West,263,6.0,-999.0,84,-99.99,,,0.00,weatherlink.com 1.10,2013-09-16 10:29:00,
2013-09-16 06:44:00,58.6,55.0,30.15,West,277,6.0,-999.0,86,-99.99,,,0.00,weatherlink.com 1.10,2013-09-16 10:44:00,
2013-09-16 06:59:00,58.4,55.0,30.15,WNW,301,7.0,-999.0,88,-99.99,,,0.00,weatherlink.com 1.10,2013-09-16 10:59:00,
2013-09-16 07:14:00,58.7,55.0,30.16,West,279,6.0,-999.0,88,-99.99,,,0.00,weatherlink.com 1.10,2013-09-16 11:14:00,
2013-09-16 07:29:00,59.2,55.0,30.16,WNW,296,7.0,-999.0,87,-99.99,,,0.00,weatherlink.com 1.10,2013-09-16 11:29:00,
2013-09-16 07:44:00,59.0,56.0,30.16,West,261,5.0,-999.0,88,-99.99,,,0.00,weatherlink.com 1.10,2013-09-16 11:44:00,
2013-09-16 07:59:00,58.9,56.0,30.16,NW,304,7.0,-999.0,89,-99.99,,,0.00,weatherlink.com 1.10,2013-09-16 11:59:00,
2013-09-16 08:14:00,59.3,56.0,30.16,WNW,294,4.0,-999.0,88,-99.99,,,0.00,weatherlink.com 1.10,2013-09-16 12:14:00,
2013-09-16 08:29:00,59.8,56.0,30.15,WNW,298,5.0,-999.0,88,-99.99,,,0.00,weatherlink.com 1.10,2013-09-16 12:29:00,
2013-09-16 08:44:00,59.4,56.0,30.16,WNW,286,10.0,-999.0,89,-99.99,,,0.00,weatherlink.com 1.10,2013-09-16 12:44:00,
2013-09-16 08:59:00,60.2,57.0,30.16,WNW,282,9.0,-999.0,88,-99.99,,,0.00,weatherlink.com 1.10,2013-09-16 12:59:00,
2013-09-16 09:14:00,60.5,57.0,30.16,North,360,10.0,-999.0,88,-99.99,,,0.00,weatherlink.com 1.10,2013-09-16 13:14:00,
2013-09-16 09:29:00,61.1,58.0,30.15,North,360,8.0,-999.0,88,-99.99,,,0.00,weatherlink.com 1.10,2013-09-16 13:29:00,
2013-09-16 09:44:00,61.8,58.0,30.16,NNW,344,7.0,-999.0,86,-99.99,,,0.00,weatherlink.com 1.10,2013-09-16 13:44:00,
2013-09-16 10:00:00,62.4,58.0,30.16,West,272,16.0,-999.0,85,-99.99,,,0.00,weatherlink.com 1.10,2013-09-16 14:00:00,
2013-09-16 10:14:00,62.6,58.0,30.16,North,360,10.0,-999.0,84,-99.99,,,0.00,weatherlink.com 1.10,2013-09-16 14:14:00,
2013-09-16 10:29:00,63.0,57.0,30.17,West,275,11.0,-999.0,82,-99.99,,,0.00,weatherlink.com 1.10,2013-09-16 14:29:00,
2013-09-16 10:44:00,63.5,58.0,30.17,North,360,12.0,-999.0,83,-99.99,,,0.00,weatherlink.com 1.10,2013-09-16 14:44:00,
2013-09-16 10:59:00,63.7,58.0,30.17,SW,234,8.0,-999.0,82,-99.99,,,0.00,weatherlink.com 1.10,2013-09-16 14:59:00,
2013-09-16 11:14:00,63.2,58.0,30.17,NW,310,11.0,-999.0,84,-99.99,,,0.00,weatherlink.com 1.10,2013-09-16 15:14:00,
2013-09-16 11:29:00,62.4,58.0,30.17,North,360,8.0,-999.0,86,-99.99,,,0.00,weatherlink.com 1.10,2013-09-16 15:29:00,
2013-09-16 11:44:00,62.2,58.0,30.18,North,360,11.0,-999.0,86,-99.99,,,0.00,weatherlink.com 1.10,2013-09-16 15:44:00,
2013-09-16 11:59:00,62.0,58.0,30.18,NW,325,6.0,-999.0,85,-99.99,,,0.00,weatherlink.com 1.10,2013-09-16 15:59:00,
2013-09-16 12:14:00,62.1,58.0,30.17,NW,304,7.0,-999.0,85,-99.99,,,0.00,weatherlink.com 1.10,2013-09-16 16:14:00,
2013-09-16 12:29:00,62.7,58.0,30.17,North,360,11.0,-999.0,83,-99.99,,,0.00,weatherlink.com 1.10,2013-09-16 16:29:00,
2013-09-16 12:44:00,63.1,58.0,30.17,NNW,333,9.0,-999.0,82,-99.99,,,0.00,weatherlink.com 1.10,2013-09-16 16:44:00,
2013-09-16 12:59:00,64.0,58.0,30.16,NW,309,4.0,-999.0,80,-99.99,,,0.00,weatherlink.com 1.10,2013-09-16 16:59:00,
2013-09-16 13:14:00,65.4,58.0,30.16,North,351,10.0,-999.0,77,-99.99,,,0.00,weatherlink.com 1.10,2013-09-16 17:14:00,
2013-09-16 13:29:00,65.7,56.0,30.16,North,360,9.0,-999.0,72,-99.99,,,0.00,weatherlink.com 1.10,2013-09-16 17:29:00,
2013-09-16 13:44:00,66.0,56.0,30.16,North,360,10.0,-999.0,70,-99.99,,,0.00,weatherlink.com 1.10,2013-09-16 17:44:00,
2013-09-16 13:59:00,66.5,56.0,30.16,NNW,345,10.0,-999.0,70,-99.99,,,0.00,weatherlink.com 1.10,2013-09-16 17:59:00,
2013-09-16 14:14:00,67.0,57.0,30.15,North,360,10.0,-999.0,71,-99.99,,,0.00,weatherlink.com 1.10,2013-09-16 18:14:00,
2013-09-16 14:29:00,67.1,56.0,30.15,West,265,14.0,-999.0,68,-99.99,,,0.00,weatherlink.com 1.10,2013-09-16 18:29:00,
2013-09-16 14:44:00,66.8,57.0,30.14,WNW,302,5.0,-999.0,70,-99.99,,,0.00,weatherlink.com 1.10,2013-09-16 18:44:00,
2013-09-16 14:59:00,65.8,56.0,30.14,WNW,302,5.0,-999.0,70,-99.99,,,0.00,weatherlink.com 1.10,2013-09-16 18:59:00,
2013-09-16 15:14:00,65.3,57.0,30.14,NNE,33,5.0,-999.0,74,-99.99,,,0.00,weatherlink.com 1.10,2013-09-16 19:14:00,
2013-09-16 15:29:00,65.1,57.0,30.14,North,351,6.0,-999.0,75,-99.99,,,0.00,weatherlink.com 1.10,2013-09-16 19:29:00,
2013-09-16 15:44:00,65.6,58.0,30.13,NW,319,4.0,-999.0,76,-99.99,,,0.00,weatherlink.com 1.10,2013-09-16 19:44:00,
2013-09-16 15:59:00,64.6,57.0,30.13,NNW,327,0.0,-999.0,76,-99.99,,,0.00,weatherlink.com 1.10,2013-09-16 19:59:00,
2013-09-16 16:14:00,64.1,57.0,30.12,NNW,327,0.0,-999.0,79,-99.99,,,0.00,weatherlink.com 1.10,2013-09-16 20:14:00,
2013-09-16 16:29:00,63.3,57.0,30.13,North,360,8.0,-999.0,79,-99.99,,,0.00,weatherlink.com 1.10,2013-09-16 20:29:00,
2013-09-16 16:44:00,62.9,56.0,30.13,WNW,300,9.0,-999.0,79,-99.99,,,0.00,weatherlink.com 1.10,2013-09-16 20:44:00,
2013-09-16 16:59:00,62.6,57.0,30.13,NNW,335,7.0,-999.0,82,-99.99,,,0.00,weatherlink.com 1.10,2013-09-16 20:59:00,
2013-09-16 17:14:00,62.6,57.0,30.13,NW,313,9.0,-999.0,83,-99.99,,,0.00,weatherlink.com 1.10,2013-09-16 21:14:00,
2013-09-16 17:29:00,62.2,56.0,30.13,West,281,9.0,-999.0,81,-99.99,,,0.00,weatherlink.com 1.10,2013-09-16 21:29:00,
2013-09-16 17:44:00,62.0,56.0,30.13,North,360,8.0,-999.0,81,-99.99,,,0.00,weatherlink.com 1.10,2013-09-16 21:44:00,
2013-09-16 17:59:00,63.0,55.0,30.13,NW,311,10.0,-999.0,75,-99.99,,,0.00,weatherlink.com 1.10,2013-09-16 21:59:00,
2013-09-16 18:29:00,62.7,55.0,30.14,NNE,25,8.0,-999.0,75,-99.99,,,0.00,weatherlink.com 1.10,2013-09-16 22:29:00,
2013-09-16 18:44:00,62.2,56.0,30.14,NNW,340,0.0,-999.0,80,-99.99,,,0.00,weatherlink.com 1.10,2013-09-16 22:44:00,
2013-09-16 18:59:00,61.5,56.0,30.14,NNE,22,1.0,-999.0,83,-99.99,,,0.00,weatherlink.com 1.10,2013-09-16 22:59:00,
2013-09-16 19:14:00,61.2,57.0,30.15,NNE,30,1.0,-999.0,85,-99.99,,,0.00,weatherlink.com 1.10,2013-09-16 23:14:00,
2013-09-16 19:29:00,60.9,57.0,30.15,NE,34,2.0,-999.0,87,-99.99,,,0.00,weatherlink.com 1.10,2013-09-16 23:29:00,
2013-09-16 19:44:00,60.7,57.0,30.15,NNE,17,1.0,-999.0,87,-99.99,,,0.00,weatherlink.com 1.10,2013-09-16 23:44:00,
2013-09-16 19:59:00,60.4,57.0,30.15,NE,48,1.0,-999.0,87,-99.99,,,0.00,weatherlink.com 1.10,2013-09-16 23:59:00,
2013-09-16 20:14:00,60.2,56.0,30.16,NE,38,0.0,-999.0,87,-99.99,,,0.00,weatherlink.com 1.10,2013-09-17 00:14:00,
2013-09-16 20:29:00,60.0,57.0,30.17,NE,38,0.0,-999.0,88,-99.99,,,0.00,weatherlink.com 1.10,2013-09-17 00:29:00,
2013-09-16 20:44:00,59.9,56.0,30.17,NE,38,2.0,-999.0,88,-99.99,,,0.00,weatherlink.com 1.10,2013-09-17 00:44:00,
2013-09-16 20:59:00,59.7,56.0,30.18,East,86,0.0,-999.0,88,-99.99,,,0.00,weatherlink.com 1.10,2013-09-17 00:59:00,
2013-09-16 21:14:00,59.6,56.0,30.18,East,86,0.0,-999.0,88,-99.99,,,0.00,weatherlink.com 1.10,2013-09-17 01:14:00,
2013-09-16 21:29:00,59.5,56.0,30.18,NE,55,0.0,-999.0,88,-99.99,,,0.00,weatherlink.com 1.10,2013-09-17 01:29:00,
2013-09-16 21:44:00,59.5,56.0,30.19,ENE,59,0.0,-999.0,87,-99.99,,,0.00,weatherlink.com 1.10,2013-09-17 01:44:00,
2013-09-16 21:59:00,59.4,56.0,30.19,ENE,59,0.0,-999.0,87,-99.99,,,0.00,weatherlink.com 1.10,2013-09-17 01:59:00,
2013-09-16 22:14:00,59.1,55.0,30.18,NE,49,4.0,-999.0,86,-99.99,,,0.00,weatherlink.com 1.10,2013-09-17 02:14:00,
2013-09-16 22:29:00,58.6,55.0,30.19,NE,41,5.0,-999.0,88,-99.99,,,0.00,weatherlink.com 1.10,2013-09-17 02:29:00,
2013-09-16 22:44:00,57.9,55.0,30.19,NE,34,3.0,-999.0,90,-99.99,,,0.00,weatherlink.com 1.10,2013-09-17 02:44:00,
2013-09-16 22:59:00,57.8,55.0,30.18,NNE,24,3.0,-999.0,91,-99.99,,,0.00,weatherlink.com 1.10,2013-09-17 02:59:00,
2013-09-16 23:14:00,57.6,55.0,30.18,ENE,63,3.0,-999.0,92,-99.99,,,0.00,weatherlink.com 1.10,2013-09-17 03:14:00,
2013-09-16 23:29:00,57.1,55.0,30.19,NE,43,2.0,-999.0,92,-99.99,,,0.00,weatherlink.com 1.10,2013-09-17 03:29:00,
2013-09-16 23:44:00,56.6,54.0,30.19,NE,51,2.0,-999.0,91,-99.99,,,0.00,weatherlink.com 1.10,2013-09-17 03:44:00,
2013-09-16 23:59:00,56.2,54.0,30.20,NE,44,3.0,-999.0,92,-99.99,,,0.00,weatherlink.com 1.10,2013-09-17 03:59:00,